Time;durP1;ratioP1;P1;durP2;ratioP2;P2;SDS_P1;SDS_P2;PMS_P1;PMS_P2;Temp;Humidity;BMP_temperature;BMP_pressure;BME280_temperature;BME280_humidity;BME280_pressure;Samples;Min_cycle;Max_cycle;Signal;HPM_P1;HPM_P2
2022/05/18 00:01:42;;;;;;;6.47;2.70;;;;;;;18.40;63.41;97170.13;5015493;28;20197;-65
2022/05/18 00:04:08;;;;;;;4.10;2.63;;;;;;;18.40;63.50;97172.78;5015482;28;20188;-65
2022/05/18 00:06:33;;;;;;;3.07;2.43;;;;;;;18.43;63.30;97174.91;5015221;28;20268;-66
2022/05/18 00:08:59;;;;;;;2.93;2.67;;;;;;;18.33;63.22;97172.28;5015137;28;20554;-65
2022/05/18 00:11:24;;;;;;;3.55;3.00;;;;;;;18.35;63.37;97164.81;5015300;28;20223;-66
2022/05/18 00:13:53;;;;;;;2.90;2.60;;;;;;;18.42;63.04;97172.53;5014730;28;20214;-65
2022/05/18 00:16:21;;;;;;;3.80;2.57;;;;;;;18.45;62.91;97171.97;5015214;28;20190;-65
2022/05/18 00:18:46;;;;;;;4.03;2.40;;;;;;;18.30;63.58;97167.47;5014597;28;20602;-65
2022/05/18 00:21:12;;;;;;;2.77;2.57;;;;;;;18.35;63.32;97172.78;5015252;28;20649;-68
2022/05/18 00:23:37;;;;;;;3.43;2.80;;;;;;;18.35;63.18;97170.13;5014701;28;20218;-65
2022/05/18 00:26:04;;;;;;;4.60;2.92;;;;;;;18.36;63.17;97177.03;5014911;28;20227;-65
2022/05/18 00:28:29;;;;;;;4.15;2.65;;;;;;;18.29;63.35;97181.81;5015016;28;20199;-65
2022/05/18 00:30:57;;;;;;;3.70;2.80;;;;;;;18.31;63.43;97184.19;5014710;28;20226;-66
2022/05/18 00:33:22;;;;;;;3.33;2.50;;;;;;;18.34;63.38;97184.47;5024094;28;20188;-66
2022/05/18 00:35:47;;;;;;;3.10;2.80;;;;;;;18.35;63.41;97190.56;5011619;28;20658;-65
2022/05/18 00:38:13;;;;;;;3.10;2.90;;;;;;;18.23;63.63;97188.16;5014879;28;20191;-65
2022/05/18 00:40:42;;;;;;;4.07;3.33;;;;;;;18.27;63.77;97194.56;5014199;28;20195;-65
2022/05/18 00:43:35;;;;;;;3.00;2.70;;;;;;;18.25;64.08;97191.38;5014913;28;20184;-65
2022/05/18 00:46:05;;;;;;;6.03;3.20;;;;;;;18.21;64.11;97185.00;5014742;28;20195;-65
2022/05/18 00:48:30;;;;;;;4.57;3.08;;;;;;;18.16;64.20;97193.75;5011739;28;20202;-65
2022/05/18 00:50:58;;;;;;;3.90;2.70;;;;;;;18.18;64.37;97191.63;5014057;28;20207;-65
2022/05/18 00:53:34;;;;;;;4.73;3.13;;;;;;;18.09;64.52;97190.56;5014594;28;20191;-65
2022/05/18 00:56:03;;;;;;;4.10;2.90;;;;;;;18.07;64.90;97186.56;5014132;28;20709;-65
2022/05/18 00:58:39;;;;;;;2.90;2.70;;;;;;;18.12;64.65;97187.38;5013821;28;20183;-65
2022/05/18 01:01:04;;;;;;;3.13;2.83;;;;;;;18.17;64.49;97182.06;5014687;28;20186;-65
2022/05/18 01:03:43;;;;;;;2.90;2.70;;;;;;;17.92;65.37;97182.06;5014475;28;20190;-65
2022/05/18 01:06:53;;;;;;;3.30;3.00;;;;;;;17.93;65.51;97185.50;5001256;28;20226;-66
2022/05/18 01:09:25;;;;;;;4.53;2.90;;;;;;;17.97;65.36;97175.97;5000810;28;20664;-65
2022/05/18 01:11:51;;;;;;;4.57;2.80;;;;;;;17.93;65.67;97174.91;5014211;28;20691;-65
2022/05/18 01:14:24;;;;;;;5.83;3.30;;;;;;;17.81;65.98;97178.59;5014062;28;20183;-66
2022/05/18 01:16:51;;;;;;;4.00;3.10;;;;;;;17.67;66.53;97172.19;5014157;28;20198;-65
2022/05/18 01:19:30;;;;;;;3.97;3.17;;;;;;;17.72;66.15;97169.53;5013993;28;20246;-65
2022/05/18 01:22:08;;;;;;;3.27;2.90;;;;;;;17.71;66.43;97173.28;5014061;28;20211;-65
2022/05/18 01:24:41;;;;;;;3.20;2.90;;;;;;;17.68;66.63;97180.94;5013573;28;20628;-66
2022/05/18 01:27:07;;;;;;;3.37;3.07;;;;;;;17.65;66.47;97181.47;5014043;28;20194;-65
2022/05/18 01:29:34;;;;;;;4.17;3.10;;;;;;;17.69;66.48;97180.69;5013987;28;20207;-66
2022/05/18 01:32:03;;;;;;;3.55;3.25;;;;;;;17.67;66.76;97184.63;5013691;28;20189;-65
2022/05/18 01:34:32;;;;;;;3.77;3.13;;;;;;;17.73;66.08;97188.91;5013733;28;20264;-65
2022/05/18 01:36:58;;;;;;;3.70;3.40;;;;;;;17.70;66.45;97195.53;5013988;28;20192;-65
2022/05/18 01:39:34;;;;;;;3.40;3.10;;;;;;;17.64;66.88;97188.63;5013509;28;20191;-65
2022/05/18 01:42:05;;;;;;;11.93;3.65;;;;;;;17.64;66.81;97190.47;5013705;28;20189;-65
2022/05/18 01:44:33;;;;;;;4.30;3.00;;;;;;;17.67;67.44;97193.41;5013528;28;20583;-65
2022/05/18 01:46:58;;;;;;;3.53;3.07;;;;;;;17.59;67.74;97193.09;5011770;28;20242;-65
2022/05/18 01:49:24;;;;;;;3.83;3.00;;;;;;;17.78;67.28;97199.53;5003969;28;20222;-65
2022/05/18 01:51:53;;;;;;;4.23;3.40;;;;;;;17.51;68.33;97193.59;5013227;28;20175;-65
2022/05/18 01:54:19;;;;;;;3.87;3.47;;;;;;;17.41;68.92;97202.31;4995541;28;20179;-66
2022/05/18 01:56:44;;;;;;;7.73;3.60;;;;;;;17.37;69.56;97198.59;5013397;28;20262;-65
2022/05/18 01:59:10;;;;;;;4.10;3.70;;;;;;;17.30;70.05;97204.13;5013359;28;20195;-65
2022/05/18 02:01:36;;;;;;;7.93;4.17;;;;;;;17.38;70.30;97205.47;5013255;28;20636;-65
2022/05/18 02:04:01;;;;;;;4.27;3.77;;;;;;;17.29;70.52;97199.88;5013003;28;20310;-65
2022/05/18 02:06:29;;;;;;;4.37;3.60;;;;;;;17.44;70.19;97204.44;5013149;28;20191;-65
2022/05/18 02:08:55;;;;;;;9.07;3.97;;;;;;;17.27;71.02;97195.91;5012955;28;20210;-65
2022/05/18 02:11:21;;;;;;;4.03;3.63;;;;;;;17.24;71.21;97199.06;5013041;28;20680;-65
2022/05/18 02:13:47;;;;;;;4.50;3.60;;;;;;;17.12;72.03;97195.81;5012531;28;20556;-65
2022/05/18 02:16:13;;;;;;;5.20;3.87;;;;;;;17.06;72.02;97195.00;5013385;28;20179;-64
2022/05/18 02:18:39;;;;;;;5.03;4.37;;;;;;;17.02;72.37;97191.28;5012775;28;20579;-65
2022/05/18 02:21:10;;;;;;;5.73;3.77;;;;;;;16.82;73.44;97191.97;5013251;28;20322;-65
2022/05/18 02:23:37;;;;;;;4.73;3.77;;;;;;;16.84;73.50;97192.50;5012578;28;20266;-66
2022/05/18 02:26:11;;;;;;;4.53;3.77;;;;;;;16.85;73.61;97186.16;5012816;28;20186;-65
2022/05/18 02:28:36;;;;;;;4.03;3.63;;;;;;;16.77;74.17;97186.66;5013056;28;20657;-65
2022/05/18 02:31:02;;;;;;;4.23;3.83;;;;;;;16.76;74.39;97190.34;5013208;28;20227;-65
2022/05/18 02:33:28;;;;;;;4.47;3.70;;;;;;;16.64;74.79;97192.38;5012874;28;20273;-65
2022/05/18 02:35:53;;;;;;;7.77;4.20;;;;;;;16.58;75.43;97196.81;5012546;28;20199;-65
2022/05/18 02:38:19;;;;;;;4.50;4.07;;;;;;;16.58;75.35;97193.34;5013120;28;20282;-65
2022/05/18 02:40:44;;;;;;;4.60;4.00;;;;;;;16.63;75.47;97188.13;5012911;28;20187;-65
2022/05/18 02:43:09;;;;;;;4.93;4.10;;;;;;;16.55;75.88;97185.94;5013038;28;20226;-65
2022/05/18 02:45:35;;;;;;;5.33;4.20;;;;;;;16.73;74.85;97195.31;5012634;28;20541;-66
2022/05/18 02:48:00;;;;;;;5.10;4.60;;;;;;;16.68;75.19;97196.09;5002927;28;20218;-65
2022/05/18 02:50:26;;;;;;;5.30;4.37;;;;;;;16.60;75.12;97199.25;5012603;28;20211;-65
2022/05/18 02:52:52;;;;;;;4.67;4.27;;;;;;;16.37;76.22;97204.84;5012935;28;20661;-65
2022/05/18 02:58:02;;;;;;;4.77;3.80;;;;;;;16.30;77.12;97212.19;5012901;28;20177;-65
2022/05/18 03:00:28;;;;;;;14.83;4.23;;;;;;;16.53;76.10;97217.16;5012661;28;20684;-65
2022/05/18 03:02:53;;;;;;;4.63;4.20;;;;;;;16.42;76.49;97221.56;5012529;28;20191;-66
2022/05/18 03:05:18;;;;;;;5.47;4.27;;;;;;;16.49;76.20;97213.41;5012459;28;20226;-66
2022/05/18 03:07:44;;;;;;;3.90;3.53;;;;;;;16.39;76.31;97222.06;5012374;28;20537;-66
2022/05/18 03:10:10;;;;;;;4.27;3.93;;;;;;;16.44;76.17;97223.97;5011736;28;20211;-65
2022/05/18 03:12:36;;;;;;;6.20;4.00;;;;;;;16.47;75.97;97226.09;5012249;28;20544;-66
2022/05/18 03:15:02;;;;;;;6.93;4.50;;;;;;;16.32;77.00;97232.06;5012571;28;20190;-65
2022/05/18 03:17:28;;;;;;;4.90;4.47;;;;;;;16.43;76.82;97217.06;5012029;28;20275;-66
2022/05/18 03:19:53;;;;;;;5.30;4.40;;;;;;;16.48;76.30;97228.50;5011882;28;20187;-66
2022/05/18 03:25:05;;;;;;;4.83;4.43;;;;;;;16.52;76.11;97229.56;5015718;28;20244;-66
2022/05/18 03:27:31;;;;;;;6.17;4.53;;;;;;;16.61;75.57;97235.22;5016493;28;20183;-66
2022/05/18 03:29:56;;;;;;;5.20;4.50;;;;;;;16.60;75.55;97236.28;5015891;28;20215;-66
2022/05/18 03:32:22;;;;;;;7.10;4.60;;;;;;;16.41;76.12;97237.69;5016106;28;20179;-66
2022/05/18 03:34:49;;;;;;;6.83;4.23;;;;;;;16.18;77.29;97242.25;5015960;28;20195;-66
2022/05/18 03:37:16;;;;;;;5.90;4.57;;;;;;;16.43;76.49;97243.53;5016217;28;20175;-66
2022/05/18 03:39:42;;;;;;;5.83;4.53;;;;;;;16.50;76.10;97238.81;4998375;28;20583;-66
2022/05/18 03:42:07;;;;;;;6.37;4.30;;;;;;;16.44;76.10;97231.91;5016192;28;20183;-66
2022/05/18 03:44:33;;;;;;;4.90;4.30;;;;;;;16.21;77.00;97236.47;5016049;28;20183;-66
2022/05/18 03:46:58;;;;;;;5.13;4.30;;;;;;;16.33;76.84;97232.88;5006599;28;20188;-66
2022/05/18 03:49:24;;;;;;;8.50;4.13;;;;;;;16.17;77.61;97240.66;5011216;28;20203;-66
2022/05/18 03:51:49;;;;;;;5.17;4.33;;;;;;;16.14;77.46;97240.38;5015958;28;20193;-66
2022/05/18 03:54:15;;;;;;;4.30;3.70;;;;;;;16.23;77.13;97234.34;5016407;28;20628;-66
2022/05/18 03:56:41;;;;;;;4.50;4.10;;;;;;;16.34;76.14;97231.78;5016058;28;20183;-66
2022/05/18 03:59:06;;;;;;;4.13;3.63;;;;;;;16.28;76.60;97238.88;5016059;28;20674;-66
2022/05/18 04:01:32;;;;;;;6.00;3.77;;;;;;;16.55;75.29;97234.34;5015673;28;20305;-66
2022/05/18 04:03:57;;;;;;;6.27;3.83;;;;;;;16.76;74.29;97232.69;4997761;28;20187;-66
2022/05/18 04:06:22;;;;;;;8.00;3.90;;;;;;;16.98;72.83;97235.22;5015524;28;20210;-66
2022/05/18 04:08:49;;;;;;;5.00;3.60;;;;;;;17.10;72.42;97235.81;5015270;28;20262;-66
2022/05/18 04:11:15;;;;;;;5.03;3.57;;;;;;;17.20;71.22;97240.38;5014976;28;20226;-66
2022/05/18 04:13:41;;;;;;;3.80;3.40;;;;;;;17.34;70.89;97239.63;5015088;28;20767;-66
2022/05/18 04:16:08;;;;;;;4.97;3.53;;;;;;;17.34;70.27;97241.47;5015602;28;20280;-66
2022/05/18 04:18:34;;;;;;;7.10;3.40;;;;;;;17.42;70.02;97252.41;5014094;28;20230;-67
2022/05/18 04:21:01;;;;;;;6.23;3.33;;;;;;;17.57;69.14;97254.31;5015113;28;20187;-64
2022/05/18 04:23:26;;;;;;;4.73;3.00;;;;;;;17.55;69.49;97250.34;5015198;28;20175;-65
2022/05/18 04:25:53;;;;;;;5.70;3.30;;;;;;;17.62;68.95;97261.50;5014816;28;20524;-65
2022/05/18 04:28:18;;;;;;;5.00;3.10;;;;;;;17.80;67.55;97261.84;5015317;28;20652;-66
2022/05/18 04:30:46;;;;;;;4.35;3.05;;;;;;;17.94;67.10;97262.19;5014959;28;20218;-65
2022/05/18 04:33:14;;;;;;;3.88;3.10;;;;;;;17.84;67.32;97259.47;5014196;28;20257;-65
2022/05/18 04:35:40;;;;;;;4.45;3.03;;;;;;;18.07;67.14;97259.00;5014178;28;20251;-66
2022/05/18 04:38:06;;;;;;;3.10;2.85;;;;;;;17.84;67.61;97262.13;5014826;28;20189;-65
2022/05/18 04:40:31;;;;;;;3.80;3.10;;;;;;;18.01;67.37;97268.00;5014821;28;20187;-65
2022/05/18 04:42:56;;;;;;;6.03;3.58;;;;;;;18.04;66.71;97274.66;4996900;28;20186;-65
2022/05/18 04:45:22;;;;;;;3.77;3.37;;;;;;;18.32;66.17;97279.50;5014548;28;20183;-66
2022/05/18 04:47:49;;;;;;;5.77;3.40;;;;;;;18.36;65.78;97279.75;5004603;28;20192;-65
2022/05/18 04:50:14;;;;;;;3.60;3.08;;;;;;;18.30;65.75;97273.63;5029575;28;20297;-65
2022/05/18 04:52:40;;;;;;;3.85;3.13;;;;;;;18.73;64.60;97282.97;5014303;28;20692;-66
2022/05/18 04:55:07;;;;;;;4.50;3.17;;;;;;;19.11;63.20;97282.41;5014471;28;20193;-65
2022/05/18 04:57:32;;;;;;;3.10;2.65;;;;;;;19.62;61.53;97284.97;5014755;28;20188;-66
2022/05/18 04:59:58;;;;;;;6.68;3.15;;;;;;;19.93;60.51;97289.09;5014843;28;20195;-66
2022/05/18 05:02:23;;;;;;;4.70;2.83;;;;;;;20.26;59.48;97292.09;5014231;28;20273;-66
2022/05/18 05:04:48;;;;;;;6.88;3.10;;;;;;;20.23;59.32;97295.31;5013866;28;20180;-66
2022/05/18 05:07:14;;;;;;;6.45;3.22;;;;;;;20.56;58.83;97294.59;5013768;28;20585;-66
2022/05/18 05:09:39;;;;;;;4.43;2.75;;;;;;;20.87;57.37;97303.16;5014313;28;20214;-66
2022/05/18 05:12:06;;;;;;;3.30;3.00;;;;;;;21.02;56.76;97310.19;5014120;28;20191;-66
2022/05/18 05:14:33;;;;;;;3.90;2.90;;;;;;;21.05;57.03;97305.13;5014219;28;20195;-66
2022/05/18 05:17:00;;;;;;;3.10;2.60;;;;;;;21.34;56.10;97301.69;5012931;28;20212;-66
2022/05/18 05:19:25;;;;;;;5.03;3.00;;;;;;;21.37;55.89;97304.56;5013861;28;20346;-68
2022/05/18 05:21:50;;;;;;;7.22;3.10;;;;;;;21.61;55.49;97307.25;5014682;28;20278;-68
2022/05/18 05:24:17;;;;;;;5.78;3.10;;;;;;;21.48;56.02;97314.06;5013947;28;20608;-68
2022/05/18 05:26:43;;;;;;;7.45;3.22;;;;;;;21.61;55.76;97309.13;5013567;28;20183;-68
2022/05/18 05:29:10;;;;;;;3.10;2.90;;;;;;;21.65;54.82;97300.25;5029117;28;20195;-68
2022/05/18 05:31:37;;;;;;;5.65;3.00;;;;;;;21.44;54.98;97299.69;5013967;28;20210;-69
2022/05/18 05:34:03;;;;;;;3.65;2.80;;;;;;;21.55;54.97;97308.38;5013914;28;20266;-68
2022/05/18 05:36:29;;;;;;;4.65;2.88;;;;;;;21.88;54.23;97307.47;5013948;28;20179;-68
2022/05/18 05:38:55;;;;;;;3.13;2.80;;;;;;;21.81;54.81;97306.22;5013150;28;20761;-69
2022/05/18 05:41:21;;;;;;;2.70;2.50;;;;;;;22.06;53.88;97310.47;5013475;28;20270;-68
2022/05/18 05:43:46;;;;;;;5.90;2.80;;;;;;;22.40;53.38;97311.06;5013488;28;20549;-68
2022/05/18 05:46:15;;;;;;;3.50;3.20;;;;;;;21.73;54.58;97310.31;5007220;28;20191;-68
2022/05/18 05:48:42;;;;;;;4.50;2.55;;;;;;;22.02;53.81;97315.56;5013148;28;20187;-68
2022/05/18 05:51:13;;;;;;;4.00;3.10;;;;;;;22.06;54.16;97316.63;5013675;28;20672;-68
2022/05/18 05:53:39;;;;;;;6.45;2.90;;;;;;;22.18;53.76;97314.28;5013366;28;20211;-68
2022/05/18 05:56:06;;;;;;;3.42;2.75;;;;;;;22.23;53.72;97316.13;5013556;28;20187;-68
2022/05/18 05:58:33;;;;;;;6.05;2.95;;;;;;;22.23;53.88;97321.47;5013510;28;20195;-68
2022/05/18 06:00:59;;;;;;;3.13;2.80;;;;;;;22.14;53.99;97326.63;5013033;28;20551;-68
2022/05/18 06:03:25;;;;;;;5.80;3.08;;;;;;;22.32;53.37;97330.41;5013431;28;20197;-68
2022/05/18 06:05:51;;;;;;;5.05;2.60;;;;;;;22.59;52.64;97327.88;5013215;28;20265;-68
2022/05/18 06:08:16;;;;;;;4.22;2.85;;;;;;;22.71;51.87;97332.78;5013365;28;20608;-68
2022/05/18 06:10:42;;;;;;;3.03;2.65;;;;;;;22.98;52.08;97329.44;5013205;28;20215;-70
2022/05/18 06:13:11;;;;;;;4.72;2.95;;;;;;;23.07;52.32;97330.38;5013198;28;20217;-70
2022/05/18 06:15:37;;;;;;;2.92;2.47;;;;;;;23.03;52.13;97338.19;5012885;28;20186;-70
2022/05/18 06:18:03;;;;;;;5.95;2.92;;;;;;;23.09;52.68;97334.34;4995408;28;20637;-70
2022/05/18 06:20:29;;;;;;;4.90;2.25;;;;;;;23.34;52.27;97341.13;5013166;28;20593;-70
2022/05/18 06:22:57;;;;;;;4.10;2.90;;;;;;;23.12;51.81;97341.78;5012478;28;20218;-71
2022/05/18 06:25:22;;;;;;;3.35;3.03;;;;;;;23.50;51.11;97331.78;5012771;28;20599;-70
2022/05/18 06:27:48;;;;;;;7.75;2.80;;;;;;;23.44;51.27;97340.16;5012656;28;20221;-70
2022/05/18 06:30:14;;;;;;;3.65;2.88;;;;;;;23.56;50.81;97327.91;5013049;28;20203;-70
2022/05/18 06:32:39;;;;;;;4.60;3.05;;;;;;;23.97;50.10;97335.13;5012836;28;20187;-70
2022/05/18 06:35:05;;;;;;;3.67;2.80;;;;;;;24.15;50.17;97338.78;5012355;28;20183;-71
2022/05/18 06:37:31;;;;;;;3.88;2.88;;;;;;;23.63;50.24;97339.00;5013230;28;20198;-71
2022/05/18 06:39:56;;;;;;;3.15;2.60;;;;;;;23.73;50.03;97334.56;5012562;28;20202;-70
2022/05/18 06:42:21;;;;;;;9.25;3.13;;;;;;;23.87;50.26;97338.81;5012860;28;20557;-71
2022/05/18 06:44:47;;;;;;;3.72;2.78;;;;;;;24.49;49.46;97341.03;5008797;28;20246;-71
2022/05/18 06:47:15;;;;;;;7.25;2.83;;;;;;;24.52;48.80;97338.53;5006650;28;20545;-71
2022/05/18 06:49:41;;;;;;;3.10;2.90;;;;;;;24.72;47.19;97335.41;5012291;28;20203;-71
2022/05/18 06:52:07;;;;;;;5.55;2.72;;;;;;;24.86;47.35;97338.81;5013062;28;20197;-71
2022/05/18 06:54:32;;;;;;;3.50;2.78;;;;;;;24.72;47.97;97340.75;5012466;28;20318;-71
2022/05/18 06:56:58;;;;;;;4.30;3.08;;;;;;;25.02;47.19;97341.94;5012106;28;20250;-71
2022/05/18 06:59:23;;;;;;;3.47;3.00;;;;;;;24.78;46.86;97339.56;5012242;28;20654;-71
2022/05/18 07:01:49;;;;;;;4.63;3.50;;;;;;;24.81;47.01;97344.28;5012613;28;20194;-71
2022/05/18 07:04:14;;;;;;;3.33;3.03;;;;;;;25.21;46.23;97341.75;5012731;28;20260;-71
2022/05/18 07:06:42;;;;;;;4.45;3.20;;;;;;;25.21;45.91;97341.75;5012390;28;20187;-70
2022/05/18 07:09:19;;;;;;;4.07;2.90;;;;;;;25.30;45.67;97349.88;5012528;28;20195;-70
2022/05/18 07:11:49;;;;;;;4.10;2.80;;;;;;;25.27;45.91;97343.22;5007677;28;20670;-71
2022/05/18 07:14:16;;;;;;;3.25;2.97;;;;;;;25.24;45.46;97346.53;5010158;28;20649;-70
2022/05/18 07:16:42;;;;;;;4.05;2.85;;;;;;;25.43;45.42;97344.41;5009785;28;20187;-70
2022/05/18 07:19:08;;;;;;;2.97;2.67;;;;;;;25.21;46.10;97345.22;4987235;28;20270;-70
2022/05/18 07:21:34;;;;;;;3.42;3.13;;;;;;;24.82;46.29;97351.25;5008507;28;20191;-70
2022/05/18 07:23:59;;;;;;;2.80;2.50;;;;;;;24.82;46.10;97345.88;5012219;28;20189;-70
2022/05/18 07:26:26;;;;;;;3.03;2.72;;;;;;;24.65;46.05;97343.06;5011359;28;20211;-70
2022/05/18 07:28:52;;;;;;;5.38;3.00;;;;;;;24.42;47.16;97347.59;5012806;28;20218;-70
2022/05/18 07:31:21;;;;;;;3.55;2.83;;;;;;;24.67;46.78;97346.25;5012130;28;20688;-70
2022/05/18 07:33:47;;;;;;;3.53;2.50;;;;;;;24.59;46.75;97343.47;5011573;28;20230;-70
2022/05/18 07:36:13;;;;;;;3.38;2.35;;;;;;;25.10;45.05;97349.25;5012159;28;20191;-70
2022/05/18 07:38:40;;;;;;;2.90;2.70;;;;;;;25.02;44.78;97344.63;5011914;28;20215;-70
2022/05/18 07:41:07;;;;;;;3.53;2.50;;;;;;;25.45;43.60;97352.94;4994092;28;20199;-70
2022/05/18 07:43:33;;;;;;;2.70;2.50;;;;;;;25.75;43.58;97345.97;5008841;28;20491;-70
2022/05/18 07:45:58;;;;;;;4.95;2.58;;;;;;;26.00;43.06;97345.28;5001425;28;20203;-68
2022/05/18 07:48:25;;;;;;;2.88;2.50;;;;;;;25.62;44.20;97349.59;5009608;28;20187;-68
2022/05/18 07:50:51;;;;;;;6.05;3.13;;;;;;;24.95;43.54;97349.63;5012121;28;20668;-68
2022/05/18 07:53:17;;;;;;;3.72;2.85;;;;;;;24.14;45.73;97354.06;5001072;28;20212;-68
2022/05/18 07:55:42;;;;;;;5.40;3.25;;;;;;;24.61;45.75;97346.66;5007640;28;20218;-68
2022/05/18 07:58:15;;;;;;;4.63;2.90;;;;;;;24.84;44.38;97350.94;5003089;28;20255;-68
2022/05/18 08:00:40;;;;;;;3.75;2.40;;;;;;;24.89;44.11;97345.50;5008239;28;20191;-68
2022/05/18 08:03:08;;;;;;;3.85;2.72;;;;;;;25.38;43.40;97341.06;4994753;28;20199;-68
2022/05/18 08:05:35;;;;;;;3.65;2.58;;;;;;;25.26;44.39;97336.25;5012149;28;20199;-67
2022/05/18 08:08:12;;;;;;;3.17;2.88;;;;;;;25.30;45.65;97339.91;5012421;28;20193;-69
2022/05/18 08:16:08;;;;;;;3.55;3.08;;;;;;;25.09;44.95;97341.50;5015544;28;20255;-69
2022/05/18 08:18:33;;;;;;;2.95;2.50;;;;;;;25.03;44.23;97348.09;5014819;28;20226;-68
2022/05/18 08:20:59;;;;;;;2.78;2.58;;;;;;;25.35;44.16;97353.22;5015417;28;20222;-69
2022/05/18 08:23:25;;;;;;;4.90;2.90;;;;;;;25.63;43.81;97356.53;5014499;28;20193;-69
2022/05/18 08:25:53;;;;;;;3.40;3.10;;;;;;;25.81;43.48;97357.38;5014523;28;20183;-68
2022/05/18 08:28:18;;;;;;;3.45;3.25;;;;;;;25.87;43.13;97348.88;5014774;28;20242;-66
2022/05/18 08:30:44;;;;;;;5.50;3.25;;;;;;;25.41;45.03;97353.88;5014632;28;20203;-66
2022/05/18 08:33:10;;;;;;;3.25;3.00;;;;;;;25.12;46.22;97352.44;5014708;28;20555;-69
2022/05/18 08:35:36;;;;;;;3.63;3.30;;;;;;;24.85;46.40;97356.00;5014650;28;20211;-67
2022/05/18 08:38:01;;;;;;;6.53;3.33;;;;;;;24.95;46.81;97346.16;5014648;28;20191;-67
2022/05/18 08:40:30;;;;;;;3.42;3.13;;;;;;;25.00;46.09;97352.19;5015190;28;20645;-67
2022/05/18 08:43:01;;;;;;;3.90;3.10;;;;;;;25.31;45.40;97348.75;5014643;28;20222;-67
2022/05/18 08:45:37;;;;;;;3.78;3.03;;;;;;;25.51;43.74;97340.19;4998551;28;20195;-67
2022/05/18 08:48:07;;;;;;;3.83;3.17;;;;;;;25.71;44.50;97354.97;5024498;28;20186;-67
2022/05/18 08:50:33;;;;;;;3.83;3.05;;;;;;;25.43;45.56;97352.44;5004027;28;20207;-67
2022/05/18 08:53:44;;;;;;;3.17;2.95;;;;;;;25.16;45.90;97352.63;5014750;28;20191;-67
2022/05/18 08:56:19;;;;;;;4.55;3.10;;;;;;;24.36;47.26;97361.41;5004507;28;20206;-66
2022/05/18 08:58:49;;;;;;;3.40;3.10;;;;;;;24.39;47.07;97361.63;5011313;28;20190;-67
2022/05/18 09:01:28;;;;;;;9.75;3.40;;;;;;;24.63;46.64;97355.19;5014481;28;20265;-67
2022/05/18 09:04:01;;;;;;;3.00;2.80;;;;;;;25.04;46.38;97360.41;5014700;28;20184;-66
2022/05/18 09:06:47;;;;;;;3.20;3.00;;;;;;;25.37;46.68;97352.88;5014578;28;20180;-67
2022/05/18 09:12:03;;;;;;;4.03;3.20;;;;;;;24.65;46.10;97353.78;5014395;28;20191;-67
2022/05/18 09:14:37;;;;;;;3.15;2.90;;;;;;;24.73;45.55;97353.06;5013941;28;20193;-68
2022/05/18 09:17:18;;;;;;;3.00;2.70;;;;;;;23.95;47.48;97350.72;4996793;28;20711;-67
2022/05/18 09:19:55;;;;;;;3.53;3.17;;;;;;;24.54;46.22;97360.47;5013507;28;20261;-67
2022/05/18 09:22:37;;;;;;;3.75;3.20;;;;;;;24.91;45.47;97359.38;4995125;28;20618;-68
2022/05/18 09:25:24;;;;;;;3.88;3.33;;;;;;;25.14;45.88;97347.53;4994164;28;20259;-68
2022/05/18 09:27:58;;;;;;;3.80;2.78;;;;;;;25.46;44.29;97348.38;4994770;28;20469;-67
2022/05/18 09:30:39;;;;;;;3.33;2.90;;;;;;;25.80;43.15;97353.91;4994866;28;20208;-67
2022/05/18 09:33:18;;;;;;;3.15;2.90;;;;;;;25.44;43.09;97355.94;4994679;28;20179;-67
2022/05/18 09:35:56;;;;;;;4.30;3.08;;;;;;;24.51;46.12;97363.78;4994647;28;20164;-67
2022/05/18 09:38:39;;;;;;;4.72;3.47;;;;;;;24.66;45.51;97355.38;4996807;28;20180;-67
2022/05/18 09:41:12;;;;;;;4.18;3.08;;;;;;;24.44;46.01;97366.06;5014117;28;20172;-67
2022/05/18 09:43:56;;;;;;;3.65;2.80;;;;;;;24.46;45.77;97357.72;4991205;28;20597;-67
2022/05/18 09:46:24;;;;;;;3.38;2.92;;;;;;;24.73;45.42;97349.59;4998475;28;20272;-67
2022/05/18 09:49:00;;;;;;;3.67;3.03;;;;;;;24.80;45.56;97353.44;5013933;28;20195;-67
2022/05/18 09:51:26;;;;;;;3.78;2.90;;;;;;;24.50;45.70;97359.50;5013809;28;20213;-67
2022/05/18 09:53:52;;;;;;;3.38;3.03;;;;;;;24.13;46.28;97349.03;4995999;28;20196;-68
2022/05/18 09:56:32;;;;;;;3.30;3.00;;;;;;;24.60;46.14;97351.22;4994298;28;20192;-68
2022/05/18 09:59:03;;;;;;;3.10;2.78;;;;;;;24.51;44.97;97350.38;4994501;28;20179;-67
2022/05/18 10:07:34;;;;;;;3.35;2.65;;;;;;;24.36;45.39;97340.75;5012851;28;20195;-67
2022/05/18 10:10:11;;;;;;;4.38;2.60;;;;;;;24.31;43.33;97335.50;5012197;28;20693;-66
2022/05/18 10:12:47;;;;;;;3.45;2.58;;;;;;;24.14;43.91;97335.31;5013073;28;20179;-67
2022/05/18 10:15:37;;;;;;;2.65;2.45;;;;;;;24.60;42.96;97326.31;5013010;28;20171;-67
2022/05/18 10:18:16;;;;;;;3.63;2.40;;;;;;;24.53;42.43;97331.28;5013031;28;20250;-66
2022/05/18 10:20:42;;;;;;;3.75;2.30;;;;;;;24.97;41.24;97325.97;5012733;28;20194;-67
2022/05/18 10:23:45;;;;;;;3.42;2.20;;;;;;;25.12;41.21;97322.13;5012645;28;20262;-68
2022/05/18 10:26:22;;;;;;;2.38;2.20;;;;;;;25.35;41.55;97315.63;5012425;28;20187;-68
2022/05/18 10:28:58;;;;;;;2.70;2.40;;;;;;;25.54;41.41;97316.19;5012395;28;20179;-68
2022/05/18 10:31:31;;;;;;;2.40;1.85;;;;;;;25.09;38.42;97318.16;5011509;28;20217;-67
2022/05/18 10:34:18;;;;;;;1.98;1.80;;;;;;;24.78;39.71;97310.06;5012960;28;20198;-67
2022/05/18 10:36:55;;;;;;;3.47;1.98;;;;;;;24.66;39.23;97312.47;5012147;28;20187;-66
2022/05/18 10:39:55;;;;;;;2.83;2.08;;;;;;;24.43;41.60;97316.22;5012976;28;20207;-67
2022/05/18 10:42:22;;;;;;;3.83;2.70;;;;;;;24.76;42.22;97306.88;4981947;28;20261;-66
2022/05/18 10:44:47;;;;;;;3.17;2.40;;;;;;;24.92;41.73;97317.25;5005138;28;20203;-66
2022/05/18 10:47:26;;;;;;;6.93;2.38;;;;;;;24.77;41.85;97311.16;5012872;28;20601;-67
2022/05/18 10:49:53;;;;;;;2.85;2.65;;;;;;;25.14;40.24;97304.63;5012424;28;20631;-68
2022/05/18 10:52:28;;;;;;;4.25;2.42;;;;;;;24.86;41.23;97305.81;5012478;28;20183;-67
2022/05/18 10:55:01;;;;;;;2.25;2.15;;;;;;;25.15;42.28;97303.53;5012172;28;20542;-67
2022/05/18 10:57:39;;;;;;;3.33;2.72;;;;;;;25.01;41.64;97312.75;5012773;28;20187;-67
2022/05/18 11:00:14;;;;;;;2.70;2.50;;;;;;;24.93;41.60;97300.88;5013124;28;20187;-67
2022/05/18 11:02:57;;;;;;;2.65;2.45;;;;;;;25.39;41.23;97302.38;5004089;28;20264;-67
2022/05/18 11:05:44;;;;;;;2.72;2.08;;;;;;;25.58;40.76;97301.06;5004342;28;20176;-67
2022/05/18 11:08:14;;;;;;;2.70;2.50;;;;;;;24.95;40.41;97301.34;4993433;28;20276;-67
2022/05/18 11:10:59;;;;;;;3.20;2.35;;;;;;;25.02;41.41;97299.00;5002352;28;20620;-67
2022/05/18 11:13:46;;;;;;;2.15;2.00;;;;;;;25.61;39.71;97284.34;5012506;28;20176;-67
2022/05/18 11:16:11;;;;;;;2.25;2.05;;;;;;;25.21;39.25;97288.88;5012070;28;20183;-67
2022/05/18 11:18:48;;;;;;;2.88;2.22;;;;;;;25.01;39.73;97281.34;5012150;28;20226;-67
2022/05/18 11:21:21;;;;;;;2.28;2.13;;;;;;;25.52;39.88;97291.53;5012259;28;20187;-66
2022/05/18 11:24:14;;;;;;;2.42;2.30;;;;;;;25.48;39.15;97287.88;5012051;28;20180;-66
2022/05/18 11:26:51;;;;;;;3.72;2.15;;;;;;;25.72;39.50;97281.38;5011907;28;20262;-67
2022/05/18 11:29:19;;;;;;;3.03;2.50;;;;;;;24.98;40.27;97287.31;5012105;28;20179;-67
2022/05/18 11:32:04;;;;;;;2.28;2.08;;;;;;;25.14;39.34;97282.34;4994627;28;20732;-67
2022/05/18 11:34:51;;;;;;;2.67;2.40;;;;;;;25.21;40.38;97280.81;5012023;28;20550;-67
2022/05/18 11:37:53;;;;;;;2.17;1.98;;;;;;;24.73;40.44;97269.16;5012029;28;20180;-67
2022/05/18 11:40:37;;;;;;;3.50;2.45;;;;;;;25.33;39.79;97266.03;5012208;28;20194;-67
2022/05/18 11:43:28;;;;;;;2.22;2.00;;;;;;;25.28;39.72;97261.59;5008583;28;20218;-67
2022/05/18 11:46:18;;;;;;;2.58;2.38;;;;;;;25.51;39.44;97265.00;5015411;28;20210;-67
2022/05/18 11:49:12;;;;;;;8.05;2.20;;;;;;;25.07;39.84;97269.41;5016164;28;20184;-66
2022/05/18 11:51:59;;;;;;;3.55;1.95;;;;;;;25.17;40.16;97269.13;5015823;28;20239;-66
2022/05/18 11:54:37;;;;;;;3.67;2.58;;;;;;;25.88;40.12;97266.38;4998040;28;20187;-67
2022/05/18 11:57:28;;;;;;;2.50;2.30;;;;;;;26.12;38.97;97269.44;5015608;28;20636;-66
2022/05/18 12:00:08;;;;;;;2.92;2.25;;;;;;;25.65;39.60;97255.75;4992421;28;20203;-67
2022/05/18 12:02:59;;;;;;;2.40;2.20;;;;;;;25.97;39.98;97262.59;5015689;28;20222;-66
2022/05/18 12:05:34;;;;;;;2.72;2.20;;;;;;;25.86;39.40;97255.16;5014346;28;20176;-67
2022/05/18 12:08:24;;;;;;;2.53;2.30;;;;;;;25.95;40.17;97251.41;5015338;28;20598;-66